Weather at Gruyere Airport

Public forecast

Using degrees Celsius for public forecast. Weather courtesy of forecast.io.

Closest aviation weather report (METAR) to Gruyere Airport

Closest report is Kalgoorlie Boulder Airport, 206.2 nm (381.8 km) SW. Retrieved 2022/08/18 04:30 UTC (28 minutes ago):

YPKG 180430Z AUTO 20011KT 9999 // SCT040 13/03 Q1026 RF000/0000

Closest aviation forecast (TAF) to Gruyere Airport

Forecast is more than 12 hours old.

Closest forecast is Kalgoorlie Boulder Airport, 206.2 nm (381.8 km) SW. Retrieved 2022/08/15 06:00 UTC (3 days ago):

TAF YPKG 150513Z 1506/1606 01010KT CAVOK FM151800 01014KT 9999 -RA NSC FM160100 32020G30KT 9999 -RA NSC